Cranberry, North Carolina
Current Conditions -  °F | °C
As of 10:15 PM on Friday 31 Oct 2014 (Local Time) from KTNB Reporting Station
Moderate Rain Moderate Rain  
Wind Chill: 31°   Ceiling: 1000
Heat Index: 38°   Visibility: 7mi
Dew Point: 37°   Wind: 10mph
Humidity: 97%   Direction: 310°NW
Pressure: 29.78"   Gusts: 17mph
Location:  36.1731°N, 81.9572°W
Report Text: KTNB 010215Z AUTO 31009G15KT 7SM RA BKN010 OVC018 04/03 A2978 RMK AO2 T00350030
Loading
Personal Weather Stations






























Interactive Weather Map New forecast layout! Learn more

10-Day Weather Forecast

Advertisements
Track Severe Weather on mobile